createdAt,value
2022-10-05T00:02:34.740Z,98726.75
2022-10-05T00:05:36.716Z,98726.59
2022-10-05T00:08:38.496Z,98726.59
2022-10-05T00:11:40.140Z,98723.94
2022-10-05T00:14:42.764Z,98725.81
2022-10-05T00:17:46.037Z,98728.47
2022-10-05T00:20:48.506Z,98722.19
2022-10-05T00:23:51.006Z,98719.53
2022-10-05T00:26:57.064Z,98714.34
2022-10-05T00:30:02.786Z,98707.28
2022-10-05T00:33:05.878Z,98704.88
2022-10-05T00:36:07.955Z,98706.69
2022-10-05T00:39:09.865Z,98708.56
2022-10-05T00:42:26.224Z,98703.38
2022-10-05T00:45:29.652Z,98700.78
2022-10-05T00:48:39.189Z,98703.38
2022-10-05T00:51:43.800Z,98692.78
2022-10-05T00:54:49.781Z,98695.28
2022-10-05T00:58:01.485Z,98688.22
2022-10-05T01:01:09.698Z,98678.56
2022-10-05T01:04:16.830Z,98683.94
2022-10-05T01:07:24.882Z,98688.50
2022-10-05T01:10:31.198Z,98686.91
2022-10-05T01:13:37.432Z,98697.75
2022-10-05T01:16:46.603Z,98700.53
2022-10-05T01:20:05.363Z,98697.09
2022-10-05T01:23:25.702Z,98703.59
2022-10-05T01:26:43.588Z,98694.78
2022-10-05T01:29:49.748Z,98682.59
2022-10-05T01:32:57.301Z,98685.19
2022-10-05T01:36:02.760Z,98684.47
2022-10-05T01:39:10.773Z,98687.94
2022-10-05T01:42:19.499Z,98679.84
2022-10-05T01:45:27.347Z,98679.78
2022-10-05T01:48:35.631Z,98670.91
2022-10-05T01:51:42.346Z,98664.84
2022-10-05T01:54:52.480Z,98655.19
2022-10-05T01:58:02.021Z,98650.13
2022-10-05T02:01:06.788Z,98650.28
2022-10-05T02:04:15.168Z,98645.94
2022-10-05T02:07:29.697Z,98648.66
2022-10-05T02:10:33.570Z,98653.13
2022-10-05T02:13:38.007Z,98646.75
2022-10-05T02:16:42.361Z,98636.13
2022-10-05T02:19:46.231Z,98634.47
2022-10-05T02:22:51.153Z,98636.13
2022-10-05T02:25:55.264Z,98643.19
2022-10-05T02:28:58.041Z,98643.19
2022-10-05T02:32:03.597Z,98644.06
2022-10-05T02:35:12.425Z,98628.84
2022-10-05T02:38:16.160Z,98641.25
2022-10-05T02:41:24.959Z,98633.41
2022-10-05T02:44:33.510Z,98630.06
2022-10-05T02:47:40.083Z,98633.97
2022-10-05T02:50:47.676Z,98625.03
2022-10-05T02:53:54.053Z,98617.97
2022-10-05T02:56:58.544Z,98619.81
2022-10-05T03:00:06.037Z,98612.75
2022-10-05T03:03:11.749Z,98605.59
2022-10-05T03:06:17.549Z,98602.06
2022-10-05T03:09:20.828Z,98594.00
2022-10-05T03:12:30.369Z,98587.66
2022-10-05T03:15:56.297Z,98585.13
2022-10-05T03:19:04.044Z,98594.66
2022-10-05T03:22:12.356Z,98590.09
2022-10-05T03:25:33.346Z,98598.03
2022-10-05T03:28:40.296Z,98597.97
2022-10-05T03:31:45.593Z,98592.63
2022-10-05T03:34:54.089Z,98591.47
2022-10-05T03:38:04.554Z,98585.03
2022-10-05T03:41:13.224Z,98574.53
2022-10-05T03:44:24.286Z,98570.91
2022-10-05T03:47:29.218Z,98568.31
2022-10-05T03:50:40.717Z,98566.59
2022-10-05T03:53:44.198Z,98564.88
2022-10-05T03:56:54.068Z,98564.13
2022-10-05T03:59:59.933Z,98552.59
2022-10-05T04:03:05.068Z,98553.63
2022-10-05T04:06:11.399Z,98552.66
2022-10-05T04:09:15.153Z,98554.41
2022-10-05T04:12:22.929Z,98554.47
2022-10-05T04:15:28.742Z,98549.28
2022-10-05T04:18:32.484Z,98552.03
2022-10-05T04:21:38.745Z,98543.25
2022-10-05T04:24:42.058Z,98541.56
2022-10-05T04:27:45.877Z,98545.25
2022-10-05T04:30:49.571Z,98543.69
2022-10-05T04:34:00.242Z,98542.81
2022-10-05T04:37:07.227Z,98539.28
2022-10-05T04:40:15.860Z,98525.16
2022-10-05T04:43:20.169Z,98528.94
2022-10-05T04:46:29.467Z,98522.88
2022-10-05T04:49:35.296Z,98530.16
2022-10-05T04:52:43.405Z,98524.03
2022-10-05T04:55:51.053Z,98515.31
2022-10-05T04:59:00.391Z,98521.59
2022-10-05T05:02:06.951Z,98520.56
2022-10-05T05:05:23.608Z,98521.44
2022-10-05T05:08:35.994Z,98506.44
2022-10-05T05:11:46.075Z,98514.53
2022-10-05T05:14:56.034Z,98505.06
2022-10-05T05:18:15.622Z,98513.06
2022-10-05T05:21:23.529Z,98524.00
2022-10-05T05:24:34.097Z,98522.44
2022-10-05T05:27:41.920Z,98515.22
2022-10-05T05:30:46.367Z,98521.25
2022-10-05T05:33:55.066Z,98522.00
2022-10-05T05:37:04.482Z,98533.69
2022-10-05T05:40:13.724Z,98546.94
2022-10-05T05:43:23.265Z,98545.06
2022-10-05T05:46:45.015Z,98533.63
2022-10-05T05:49:55.971Z,98543.63
2022-10-05T05:53:02.033Z,98553.25
2022-10-05T05:56:08.518Z,98551.53
2022-10-05T05:59:15.013Z,98544.47
2022-10-05T06:02:19.260Z,98541.72
2022-10-05T06:05:31.741Z,98546.22
2022-10-05T06:08:35.993Z,98546.22
2022-10-05T06:11:42.175Z,98539.16
2022-10-05T06:14:46.288Z,98541.97
2022-10-05T06:17:52.824Z,98551.63
2022-10-05T06:20:57.736Z,98551.41
2022-10-05T06:24:00.995Z,98555.66
2022-10-05T06:27:15.857Z,98566.09
2022-10-05T06:30:18.073Z,98558.78
2022-10-05T06:33:30.585Z,98554.22
2022-10-05T06:36:38.921Z,98567.38
2022-10-05T06:40:06.138Z,98560.94
2022-10-05T06:43:18.441Z,98565.09
2022-10-05T06:46:22.978Z,98563.13
2022-10-05T06:49:27.968Z,98553.19
2022-10-05T06:52:33.870Z,98559.19
2022-10-05T06:55:42.861Z,98563.25
2022-10-05T06:58:50.479Z,98555.06
2022-10-05T07:01:57.421Z,98556.63
2022-10-05T07:05:17.073Z,98556.34
2022-10-05T07:08:24.211Z,98555.09
2022-10-05T07:11:56.416Z,98559.19
2022-10-05T07:15:10.573Z,98557.19
2022-10-05T07:18:26.378Z,98561.50
2022-10-05T07:21:35.643Z,98561.41
2022-10-05T07:24:40.897Z,98549.78
2022-10-05T07:27:50.907Z,98551.53
2022-10-05T07:31:00.929Z,98551.69
2022-10-05T07:34:06.870Z,98545.47
2022-10-05T07:37:29.113Z,98554.44
2022-10-05T07:40:33.503Z,98548.94
2022-10-05T07:44:01.022Z,98553.41
2022-10-05T07:47:07.899Z,98555.91
2022-10-05T07:50:15.410Z,98551.28
2022-10-05T07:53:22.689Z,98556.41
2022-10-05T07:56:37.027Z,98553.41
2022-10-05T07:59:44.128Z,98550.44
2022-10-05T08:02:49.459Z,98550.38
2022-10-05T08:05:51.193Z,98560.03
2022-10-05T08:08:57.128Z,98557.22
2022-10-05T08:12:04.691Z,98558.00
2022-10-05T08:15:12.629Z,98554.22
2022-10-05T08:18:36.791Z,98559.44
2022-10-05T08:21:42.049Z,98559.28
2022-10-05T08:24:45.905Z,98559.97
2022-10-05T08:27:55.709Z,98566.81
2022-10-05T08:31:01.800Z,98574.50
2022-10-05T08:34:20.109Z,98565.47
2022-10-05T08:37:23.827Z,98569.94
2022-10-05T08:40:41.694Z,98564.47
2022-10-05T08:43:56.257Z,98568.59
2022-10-05T08:47:10.373Z,98571.19
2022-10-05T08:50:20.646Z,98573.72
2022-10-05T08:53:45.876Z,98573.56
2022-10-05T08:57:03.915Z,98579.69
2022-10-05T09:00:11.535Z,98579.94
2022-10-05T09:03:34.464Z,98592.28
2022-10-05T09:06:52.036Z,98576.69
2022-10-05T09:10:12.019Z,98585.25
2022-10-05T09:13:26.417Z,98589.34
2022-10-05T09:16:46.914Z,98593.38
2022-10-05T09:20:03.840Z,98590.44
2022-10-05T09:23:12.674Z,98589.34
2022-10-05T09:26:41.677Z,98589.97
2022-10-05T09:30:02.804Z,98587.88
2022-10-05T09:33:27.110Z,98592.81
2022-10-05T09:36:46.940Z,98595.09
2022-10-05T09:40:10.164Z,98597.09
2022-10-05T09:43:35.849Z,98592.09
2022-10-05T09:46:46.434Z,98579.94
2022-10-05T09:50:12.349Z,98578.63
2022-10-05T09:53:44.542Z,98572.66
2022-10-05T09:56:55.634Z,98572.13
2022-10-05T10:00:12.631Z,98570.75
2022-10-05T10:03:25.452Z,98561.41
2022-10-05T10:06:37.778Z,98565.63
2022-10-05T10:09:49.333Z,98557.41
2022-10-05T10:12:57.183Z,98562.59
2022-10-05T10:16:12.907Z,98558.78
2022-10-05T10:19:31.844Z,98567.69
2022-10-05T10:22:50.536Z,98582.81
2022-10-05T10:26:13.527Z,98572.94
2022-10-05T10:29:33.901Z,98564.75
2022-10-05T10:32:55.143Z,98569.16
2022-10-05T10:36:06.100Z,98565.63
2022-10-05T10:39:12.376Z,98565.53
2022-10-05T10:42:34.440Z,98563.59
2022-10-05T10:45:41.589Z,98564.06
2022-10-05T10:49:02.946Z,98550.47
2022-10-05T10:52:33.185Z,98543.84
2022-10-05T10:55:47.242Z,98537.84
2022-10-05T10:59:03.360Z,98536.44
2022-10-05T11:02:15.968Z,98539.41
2022-10-05T11:05:33.163Z,98530.63
2022-10-05T11:08:55.934Z,98534.00
2022-10-05T11:12:11.573Z,98528.03
2022-10-05T11:15:50.249Z,98519.13
2022-10-05T11:19:02.680Z,98523.03
2022-10-05T11:22:14.445Z,98513.44
2022-10-05T11:25:34.240Z,98513.63
2022-10-05T11:28:58.928Z,98504.91
2022-10-05T11:32:31.834Z,98501.63
2022-10-05T11:35:50.592Z,98509.31
2022-10-05T11:39:15.631Z,98500.84
2022-10-05T11:42:45.261Z,98500.38
2022-10-05T11:45:58.137Z,98490.16
2022-10-05T11:49:14.020Z,98490.34
2022-10-05T11:52:21.087Z,98491.66
2022-10-05T11:55:25.065Z,98485.75
2022-10-05T11:58:29.791Z,98470.88
2022-10-05T12:01:38.010Z,98474.22
2022-10-05T12:04:53.111Z,98473.59
2022-10-05T12:08:03.750Z,98469.53
2022-10-05T12:11:09.204Z,98452.31
2022-10-05T12:14:16.377Z,98455.59
2022-10-05T12:17:25.680Z,98442.06
2022-10-05T12:20:30.561Z,98432.53
2022-10-05T12:23:35.795Z,98440.94
2022-10-05T12:26:41.136Z,98431.06
2022-10-05T12:29:48.941Z,98426.13
2022-10-05T12:33:03.044Z,98428.38
2022-10-05T12:36:09.405Z,98423.44
2022-10-05T12:39:16.143Z,98426.53
2022-10-05T12:42:26.130Z,98413.75
2022-10-05T12:45:31.039Z,98419.78
2022-10-05T12:48:47.419Z,98426.66
2022-10-05T12:51:55.031Z,98406.00
2022-10-05T12:55:02.217Z,98397.81
2022-10-05T12:58:16.284Z,98395.66
2022-10-05T13:01:31.779Z,98393.94
2022-10-05T13:04:39.607Z,98393.09
2022-10-05T13:07:50.947Z,98387.38
2022-10-05T13:10:59.928Z,98389.09
2022-10-05T13:14:17.513Z,98390.66
2022-10-05T13:17:25.942Z,98377.13
2022-10-05T13:20:46.051Z,98389.38
2022-10-05T13:23:57.405Z,98379.66
2022-10-05T13:27:04.811Z,98365.53
2022-10-05T13:30:13.930Z,98370.00
2022-10-05T13:33:19.818Z,98365.59
2022-10-05T13:36:31.703Z,98367.38
2022-10-05T13:39:41.890Z,98354.94
2022-10-05T13:42:48.272Z,98351.06
2022-10-05T13:45:55.837Z,98355.47
2022-10-05T13:49:08.745Z,98352.81
2022-10-05T13:52:44.962Z,98351.47
2022-10-05T13:55:49.991Z,98342.66
2022-10-05T13:59:02.208Z,98336.16
2022-10-05T14:02:07.083Z,98334.84
2022-10-05T14:05:27.984Z,98329.00
2022-10-05T14:08:32.659Z,98319.34
2022-10-05T14:11:41.757Z,98313.63
2022-10-05T14:14:45.376Z,98310.56
2022-10-05T14:17:47.310Z,98302.47
2022-10-05T14:20:58.343Z,98302.84
2022-10-05T14:24:43.214Z,98293.13
2022-10-05T14:27:51.699Z,98290.06
2022-10-05T14:30:59.411Z,98284.94
2022-10-05T14:34:20.119Z,98282.84
2022-10-05T14:37:23.109Z,98273.78
2022-10-05T14:40:26.933Z,98274.16
2022-10-05T14:43:30.746Z,98271.66
2022-10-05T14:46:33.050Z,98262.59
2022-10-05T14:49:38.001Z,98251.81
2022-10-05T14:52:41.252Z,98248.41
2022-10-05T14:55:51.808Z,98235.66
2022-10-05T14:59:22.258Z,98231.97
2022-10-05T15:02:35.547Z,98236.50
2022-10-05T15:05:39.680Z,98243.66
2022-10-05T15:08:48.887Z,98239.13
2022-10-05T15:11:52.746Z,98237.16
2022-10-05T15:15:01.045Z,98239.47
2022-10-05T15:18:05.853Z,98234.06
2022-10-05T15:21:21.616Z,98228.81
2022-10-05T15:24:26.677Z,98219.00
2022-10-05T15:27:31.664Z,98219.88
2022-10-05T15:30:36.801Z,98220.72
2022-10-05T15:33:41.728Z,98220.97
2022-10-05T15:36:48.198Z,98217.66
2022-10-05T15:39:53.464Z,98216.06
2022-10-05T15:42:58.667Z,98213.47
2022-10-05T15:46:05.301Z,98206.34
2022-10-05T15:49:16.321Z,98210.03
2022-10-05T15:52:23.967Z,98214.19
2022-10-05T15:55:30.111Z,98216.75
2022-10-05T15:58:51.399Z,98221.53
2022-10-05T16:01:57.686Z,98206.72
2022-10-05T16:05:04.907Z,98224.81
2022-10-05T16:08:29.017Z,98224.66
2022-10-05T16:11:45.540Z,98227.59
2022-10-05T16:15:01.561Z,98234.47
2022-10-05T16:18:18.681Z,98231.25
2022-10-05T16:21:25.254Z,98235.16
2022-10-05T16:24:41.320Z,98237.09
2022-10-05T16:28:05.301Z,98246.63
2022-10-05T16:31:13.153Z,98242.09
2022-10-05T16:34:23.411Z,98251.34
2022-10-05T16:37:32.128Z,98250.63
2022-10-05T16:40:39.748Z,98262.00
2022-10-05T16:43:49.647Z,98259.50
2022-10-05T16:46:53.845Z,98268.06
2022-10-05T16:50:04.194Z,98264.97
2022-10-05T16:53:12.281Z,98273.88
2022-10-05T16:56:17.159Z,98279.50
2022-10-05T16:59:34.797Z,98294.38
2022-10-05T17:02:50.260Z,98296.31
2022-10-05T17:06:02.658Z,98300.72
2022-10-05T17:09:28.590Z,98309.91
2022-10-05T17:12:39.488Z,98325.41
2022-10-05T17:15:50.728Z,98330.03
2022-10-05T17:19:12.946Z,98339.16
2022-10-05T17:22:22.980Z,98341.53
2022-10-05T17:25:34.310Z,98351.53
2022-10-05T17:28:40.181Z,98351.03
2022-10-05T17:32:09.656Z,98357.28
2022-10-05T17:35:18.196Z,98369.66
2022-10-05T17:38:23.286Z,98371.72
2022-10-05T17:41:43.181Z,98377.81
2022-10-05T17:44:45.055Z,98389.44
2022-10-05T17:47:56.260Z,98391.69
2022-10-05T17:51:16.599Z,98390.72
2022-10-05T17:54:39.485Z,98392.34
2022-10-05T17:57:42.045Z,98394.50
2022-10-05T18:01:03.182Z,98399.91
2022-10-05T18:04:23.585Z,98397.72
2022-10-05T18:07:25.514Z,98396.44
2022-10-05T18:10:29.232Z,98400.53
2022-10-05T18:13:35.031Z,98406.13
2022-10-05T18:16:55.481Z,98404.59
2022-10-05T18:20:27.185Z,98401.81
2022-10-05T18:23:35.721Z,98409.00
2022-10-05T18:26:44.850Z,98414.72
2022-10-05T18:30:05.259Z,98415.47
2022-10-05T18:33:19.493Z,98415.28
2022-10-05T18:36:27.589Z,98425.16
2022-10-05T18:39:39.044Z,98428.03
2022-10-05T18:42:45.366Z,98428.69
2022-10-05T18:45:55.699Z,98432.25
2022-10-05T18:49:04.557Z,98442.56
2022-10-05T18:52:13.555Z,98440.09
2022-10-05T18:55:24.365Z,98442.78
2022-10-05T18:58:33.809Z,98441.59
2022-10-05T19:01:44.896Z,98446.69
2022-10-05T19:04:56.891Z,98455.81
2022-10-05T19:08:02.851Z,98458.41
2022-10-05T19:11:06.316Z,98466.38
2022-10-05T19:14:16.309Z,98460.75
2022-10-05T19:17:23.594Z,98473.03
2022-10-05T19:20:29.328Z,98473.34
2022-10-05T19:23:41.805Z,98482.06
2022-10-05T19:26:54.165Z,98492.28
2022-10-05T19:30:03.526Z,98489.72
2022-10-05T19:33:11.053Z,98484.66
2022-10-05T19:36:28.711Z,98508.97
2022-10-05T19:39:36.151Z,98507.25
2022-10-05T19:42:51.307Z,98502.09
2022-10-05T19:46:02.627Z,98506.84
2022-10-05T19:49:09.046Z,98515.03
2022-10-05T19:52:12.912Z,98521.91
2022-10-05T19:55:19.164Z,98502.09
2022-10-05T19:58:24.672Z,98501.56
2022-10-05T20:01:36.784Z,98500.72
2022-10-05T20:04:40.698Z,98507.59
2022-10-05T20:07:49.685Z,98515.91
2022-10-05T20:11:04.555Z,98500.81
2022-10-05T20:14:19.370Z,98512.03
2022-10-05T20:17:45.970Z,98512.91
2022-10-05T20:20:49.444Z,98517.31
2022-10-05T20:24:05.764Z,98525.59
2022-10-05T20:27:27.469Z,98524.75
2022-10-05T20:30:30.890Z,98540.22
2022-10-05T20:33:37.533Z,98539.38
2022-10-05T20:36:40.455Z,98543.91
2022-10-05T20:39:42.023Z,98546.69
2022-10-05T20:42:43.788Z,98557.81
2022-10-05T20:45:45.764Z,98552.53
2022-10-05T20:48:48.832Z,98561.53
2022-10-05T20:51:50.400Z,98558.09
2022-10-05T20:54:53.882Z,98571.38
2022-10-05T20:57:57.507Z,98560.69
2022-10-05T21:01:18.466Z,98558.09
2022-10-05T21:04:25.395Z,98559.19
2022-10-05T21:07:27.248Z,98561.97
2022-10-05T21:10:28.927Z,98551.22
2022-10-05T21:13:30.585Z,98559.41
2022-10-05T21:16:33.208Z,98561.44
2022-10-05T21:19:40.346Z,98566.72
2022-10-05T21:22:42.425Z,98577.16
2022-10-05T21:25:43.985Z,98558.31
2022-10-05T21:28:45.806Z,98558.66
2022-10-05T21:31:47.655Z,98558.53
2022-10-05T21:34:50.715Z,98546.91
2022-10-05T21:37:52.357Z,98537.03
2022-10-05T21:40:54.131Z,98556.81
2022-10-05T21:43:55.787Z,98547.78
2022-10-05T21:46:57.724Z,98538.75
2022-10-05T21:50:01.379Z,98548.88
2022-10-05T21:53:04.571Z,98552.94
2022-10-05T21:56:08.901Z,98546.59
2022-10-05T21:59:12.074Z,98556.38
2022-10-05T22:02:17.729Z,98567.16
2022-10-05T22:05:21.400Z,98558.22
2022-10-05T22:08:25.406Z,98560.03
2022-10-05T22:11:29.061Z,98567.47
2022-10-05T22:14:31.223Z,98565.19
2022-10-05T22:17:32.899Z,98556.81
2022-10-05T22:20:35.976Z,98563.28
2022-10-05T22:23:37.896Z,98575.31
2022-10-05T22:26:40.174Z,98568.13
2022-10-05T22:29:41.728Z,98566.19
2022-10-05T22:32:43.417Z,98542.81
2022-10-05T22:35:46.731Z,98550.47
2022-10-05T22:38:48.349Z,98563.47
2022-10-05T22:41:50.544Z,98549.72
2022-10-05T22:44:52.084Z,98564.16
2022-10-05T22:47:56.592Z,98554.88
2022-10-05T22:50:59.543Z,98557.47
2022-10-05T22:54:01.080Z,98562.84
2022-10-05T22:57:05.506Z,98573.63
2022-10-05T23:00:08.099Z,98590.00
2022-10-05T23:03:09.765Z,98582.66
2022-10-05T23:06:13.990Z,98593.09
2022-10-05T23:09:15.468Z,98589.03
2022-10-05T23:12:17.156Z,98603.56
2022-10-05T23:15:18.842Z,98600.22
2022-10-05T23:18:20.449Z,98590.44
2022-10-05T23:21:24.372Z,98607.75
2022-10-05T23:24:25.989Z,98626.19
2022-10-05T23:27:27.703Z,98626.19
2022-10-05T23:30:29.594Z,98636.09
2022-10-05T23:33:31.516Z,98644.84
2022-10-05T23:36:34.553Z,98654.63
2022-10-05T23:42:58.617Z,98651.97
2022-10-05T23:46:00.680Z,98656.66
2022-10-05T23:49:02.808Z,98665.03
2022-10-05T23:52:06.144Z,98685.84
2022-10-05T23:55:07.902Z,98681.00
2022-10-05T23:58:09.865Z,98689.16
